Time;durP1;ratioP1;P1;durP2;ratioP2;P2;SDS_P1;SDS_P2;PMS_P1;PMS_P2;Temp;Humidity;BMP_temperature;BMP_pressure;BME280_temperature;BME280_humidity;BME280_pressure;Samples;Min_cycle;Max_cycle;Signal;HPM_P1;HPM_P2
2021/12/30 00:02:24;;;;;;;;;;;8.90;99.90;;;;;;5005644;28;20113;-65
2021/12/30 00:04:50;;;;;;;;;;;9.30;99.90;;;;;;5007185;28;19909;-65
2021/12/30 00:07:16;;;;;;;;;;;9.50;99.90;;;;;;5007314;28;19906;-65
2021/12/30 00:09:41;;;;;;;;;;;9.50;99.90;;;;;;5007206;28;19910;-65
2021/12/30 00:12:08;;;;;;;;;;;9.60;99.90;;;;;;5007417;28;20139;-65
2021/12/30 00:14:33;;;;;;;;;;;9.70;99.90;;;;;;5007175;28;19905;-65
2021/12/30 00:16:59;;;;;;;;;;;9.80;99.90;;;;;;5007131;28;20310;-65
2021/12/30 00:19:25;;;;;;;;;;;9.90;99.90;;;;;;5017033;23;19918;-63
2021/12/30 00:21:50;;;;;;;;;;;10.00;99.90;;;;;;4987978;28;19942;-63
2021/12/30 00:24:16;;;;;;;;;;;10.10;99.90;;;;;;4987573;28;19910;-62
2021/12/30 00:26:42;;;;;;;;;;;10.10;99.90;;;;;;4987610;28;19906;-62
2021/12/30 00:29:08;;;;;;;;;;;10.10;99.90;;;;;;4987350;28;19956;-64
2021/12/30 00:31:34;;;;;;;;;;;10.20;99.90;;;;;;4987030;28;20109;-63
2021/12/30 00:33:59;;;;;;;;;;;10.40;99.90;;;;;;4987180;28;19906;-63
2021/12/30 00:36:25;;;;;;;;;;;10.30;99.90;;;;;;4987148;28;19906;-63
2021/12/30 00:38:51;;;;;;;;;;;10.40;99.90;;;;;;4986350;28;20201;-63
2021/12/30 00:41:18;;;;;;;;;;;10.40;99.90;;;;;;4987285;28;19906;-64
2021/12/30 00:43:44;;;;;;;;;;;10.40;99.90;;;;;;4987261;28;19973;-64
2021/12/30 00:46:10;;;;;;;;;;;10.40;99.90;;;;;;4987128;28;20197;-64
2021/12/30 00:48:35;;;;;;;;;;;10.40;99.90;;;;;;4985298;28;20197;-63
2021/12/30 00:51:01;;;;;;;;;;;10.50;99.90;;;;;;4987157;28;19945;-64
2021/12/30 00:53:27;;;;;;;;;;;10.50;99.90;;;;;;4987332;28;20240;-63
2021/12/30 00:55:53;;;;;;;;;;;10.60;99.90;;;;;;4986763;28;19906;-64
2021/12/30 00:58:18;;;;;;;;;;;10.60;99.90;;;;;;4986913;28;20212;-63
2021/12/30 01:00:44;;;;;;;;;;;10.60;99.90;;;;;;4987015;28;19906;-64
2021/12/30 01:03:11;;;;;;;;;;;10.70;99.90;;;;;;4987045;28;19906;-64
2021/12/30 01:05:36;;;;;;;;;;;10.70;99.90;;;;;;4986494;28;19948;-63
2021/12/30 01:08:03;;;;;;;;;;;10.70;99.90;;;;;;4986905;28;19905;-64
2021/12/30 01:10:28;;;;;;;;;;;10.80;99.90;;;;;;4986686;28;19910;-63
2021/12/30 01:12:54;;;;;;;;;;;10.70;99.90;;;;;;4985932;28;19906;-63
2021/12/30 01:15:29;;;;;;;;;;;10.80;99.90;;;;;;4986350;28;19906;-63
2021/12/30 01:18:19;;;;;;;;;;;10.80;99.90;;;;;;4986827;28;19906;-64
2021/12/30 01:20:41;;;;;;;;;;;10.90;99.90;;;;;;4986350;28;19948;-64
2021/12/30 01:23:06;;;;;;;;;;;10.80;99.90;;;;;;4987041;28;19913;-63
2021/12/30 01:25:32;;;;;;;;;;;10.90;99.90;;;;;;4986388;28;19929;-64
2021/12/30 01:27:58;;;;;;;;;;;10.90;99.90;;;;;;4986480;28;19906;-63
2021/12/30 01:30:23;;;;;;;;;;;10.80;99.90;;;;;;4986500;28;19913;-63
2021/12/30 01:32:49;;;;;;;;;;;10.90;99.90;;;;;;4985951;28;20255;-63
2021/12/30 01:35:22;;;;;;;;;;;10.90;99.90;;;;;;4985837;28;19913;-63
2021/12/30 01:37:52;;;;;;;;;;;10.90;99.90;;;;;;4986399;28;19906;-64
2021/12/30 01:40:18;;;;;;;;;;;10.90;99.90;;;;;;4986296;28;19936;-64
2021/12/30 01:42:43;;;;;;;;;;;10.90;99.90;;;;;;4986414;28;19929;-63
2021/12/30 01:45:10;;;;;;;;;;;10.90;99.90;;;;;;4985869;28;19910;-64
2021/12/30 01:47:37;;;;;;;;;;;10.90;99.90;;;;;;4985732;28;20229;-63
2021/12/30 01:50:04;;;;;;;;;;;11.00;99.90;;;;;;4985700;28;19906;-63
2021/12/30 01:52:29;;;;;;;;;;;11.10;99.90;;;;;;4986060;28;19913;-63
2021/12/30 01:54:55;;;;;;;;;;;11.10;99.90;;;;;;4985750;28;19906;-63
2021/12/30 01:57:21;;;;;;;;;;;11.10;99.90;;;;;;4986050;28;20150;-62
2021/12/30 01:59:46;;;;;;;;;;;11.10;99.90;;;;;;4985878;28;19973;-64
2021/12/30 02:02:12;;;;;;;;;;;11.10;99.90;;;;;;4985915;28;19906;-63
2021/12/30 02:04:38;;;;;;;;;;;11.10;99.90;;;;;;4985243;28;20213;-63
2021/12/30 02:07:03;;;;;;;;;;;11.00;99.90;;;;;;4985898;28;19906;-63
2021/12/30 02:09:30;;;;;;;;;;;11.00;99.90;;;;;;4985674;28;19977;-62
2021/12/30 02:11:57;;;;;;;;;;;11.00;99.90;;;;;;4985758;28;19906;-63
2021/12/30 02:14:23;;;;;;;;;;;10.90;99.90;;;;;;4985435;28;19906;-63
2021/12/30 02:16:48;;;;;;;;;;;10.90;99.90;;;;;;4984094;28;20218;-63
2021/12/30 02:19:14;;;;;;;;;;;10.90;99.90;;;;;;4985084;28;19910;-63
2021/12/30 02:21:40;;;;;;;;;;;10.90;99.90;;;;;;4985556;28;19929;-64
2021/12/30 02:24:06;;;;;;;;;;;11.00;99.90;;;;;;4985080;28;19977;-64
2021/12/30 02:26:31;;;;;;;;;;;10.90;99.90;;;;;;4985249;28;20271;-64
2021/12/30 02:28:57;;;;;;;;;;;11.10;99.90;;;;;;4985388;28;19905;-64
2021/12/30 02:31:25;;;;;;;;;;;11.00;99.90;;;;;;4984770;28;19906;-63
2021/12/30 02:33:51;;;;;;;;;;;11.00;99.90;;;;;;4985205;28;19906;-63
2021/12/30 02:36:23;;;;;;;;;;;11.00;99.90;;;;;;4984915;28;19929;-63
2021/12/30 02:38:48;;;;;;;;;;;11.00;99.90;;;;;;4984198;28;19906;-63
2021/12/30 02:41:17;;;;;;;;;;;10.90;99.90;;;;;;4985235;28;19921;-63
2021/12/30 02:43:43;;;;;;;;;;;10.90;99.90;;;;;;4985187;28;19910;-63
2021/12/30 02:46:09;;;;;;;;;;;10.90;99.90;;;;;;4984409;28;19906;-63
2021/12/30 02:48:36;;;;;;;;;;;10.90;99.90;;;;;;4984073;28;19953;-63
2021/12/30 02:51:05;;;;;;;;;;;10.80;99.90;;;;;;4984927;28;19906;-64
2021/12/30 02:53:31;;;;;;;;;;;10.80;99.90;;;;;;4984559;28;20176;-63
2021/12/30 02:55:57;;;;;;;;;;;10.80;99.90;;;;;;4984262;28;19906;-63
2021/12/30 02:58:23;;;;;;;;;;;10.80;99.90;;;;;;4984259;28;20221;-63
2021/12/30 03:00:50;;;;;;;;;;;10.90;99.90;;;;;;4984836;28;19946;-63
2021/12/30 03:03:22;;;;;;;;;;;10.90;99.90;;;;;;4983565;28;19905;-63
2021/12/30 03:05:48;;;;;;;;;;;10.90;99.90;;;;;;4984546;28;19989;-63
2021/12/30 03:08:14;;;;;;;;;;;10.90;99.90;;;;;;4984657;28;19906;-64
2021/12/30 03:10:40;;;;;;;;;;;10.90;99.90;;;;;;4984475;28;19913;-64
2021/12/30 03:13:08;;;;;;;;;;;10.90;99.90;;;;;;4984706;28;19906;-63
2021/12/30 03:15:34;;;;;;;;;;;10.90;99.90;;;;;;4984317;28;20201;-63
2021/12/30 03:17:59;;;;;;;;;;;10.90;99.90;;;;;;4984514;28;19937;-62
2021/12/30 03:20:25;;;;;;;;;;;10.90;99.90;;;;;;4984332;28;19972;-64
2021/12/30 03:22:50;;;;;;;;;;;10.80;99.90;;;;;;4983456;28;19906;-63
2021/12/30 03:25:16;;;;;;;;;;;10.70;99.90;;;;;;4983807;28;19910;-63
2021/12/30 03:27:42;;;;;;;;;;;10.70;99.90;;;;;;4984278;28;19929;-64
2021/12/30 03:30:11;;;;;;;;;;;10.60;99.90;;;;;;4984305;28;20116;-64
2021/12/30 03:32:36;;;;;;;;;;;10.60;99.90;;;;;;4983898;28;19913;-64
2021/12/30 03:35:03;;;;;;;;;;;10.60;99.90;;;;;;4983989;28;19906;-64
2021/12/30 03:37:28;;;;;;;;;;;10.50;99.90;;;;;;4983551;28;19910;-64
2021/12/30 03:39:54;;;;;;;;;;;10.60;99.90;;;;;;4983934;28;20086;-64
2021/12/30 03:42:20;;;;;;;;;;;10.60;99.90;;;;;;4984199;28;19914;-64
2021/12/30 03:44:46;;;;;;;;;;;10.60;99.90;;;;;;4983883;28;19949;-64
2021/12/30 03:47:15;;;;;;;;;;;10.60;99.90;;;;;;4984118;28;19981;-64
2021/12/30 03:49:44;;;;;;;;;;;10.60;99.90;;;;;;4984123;28;20141;-63
2021/12/30 03:52:15;;;;;;;;;;;10.60;99.90;;;;;;4982230;28;19905;-65
2021/12/30 03:54:42;;;;;;;;;;;10.60;99.90;;;;;;4983577;28;20123;-64
2021/12/30 03:57:08;;;;;;;;;;;10.60;99.90;;;;;;4983258;28;19973;-64
2021/12/30 03:59:34;;;;;;;;;;;10.60;99.90;;;;;;4983954;28;19906;-64
2021/12/30 04:01:59;;;;;;;;;;;10.60;99.90;;;;;;4983084;28;19984;-64
2021/12/30 04:04:25;;;;;;;;;;;10.60;99.90;;;;;;4980365;28;20184;-64
2021/12/30 04:06:51;;;;;;;;;;;10.70;99.90;;;;;;4983564;28;19906;-63
2021/12/30 04:09:18;;;;;;;;;;;10.60;99.90;;;;;;4983660;28;19913;-65
2021/12/30 04:11:43;;;;;;;;;;;10.60;99.90;;;;;;4983793;28;19977;-64
2021/12/30 04:14:09;;;;;;;;;;;10.60;99.90;;;;;;4983750;28;19929;-63
2021/12/30 04:16:35;;;;;;;;;;;10.60;99.90;;;;;;4983756;28;20236;-64
2021/12/30 04:19:01;;;;;;;;;;;10.60;99.90;;;;;;4983471;28;19910;-64
2021/12/30 04:21:27;;;;;;;;;;;10.70;99.90;;;;;;4982500;28;19910;-64
2021/12/30 04:23:52;;;;;;;;;;;10.70;99.90;;;;;;4983575;28;20267;-64
2021/12/30 04:26:18;;;;;;;;;;;10.70;99.90;;;;;;4983217;28;19981;-64
2021/12/30 04:28:44;;;;;;;;;;;10.70;99.90;;;;;;4983506;28;19913;-63
2021/12/30 04:31:10;;;;;;;;;;;10.70;99.90;;;;;;4983817;28;19922;-63
2021/12/30 04:33:36;;;;;;;;;;;10.70;99.90;;;;;;4983181;28;20196;-63
2021/12/30 04:36:02;;;;;;;;;;;10.70;99.90;;;;;;4983484;28;19906;-64
2021/12/30 04:38:28;;;;;;;;;;;10.60;99.90;;;;;;4983401;28;19906;-64
2021/12/30 04:40:54;;;;;;;;;;;10.60;99.90;;;;;;4983595;28;19910;-64
2021/12/30 04:43:19;;;;;;;;;;;10.60;99.90;;;;;;4983352;28;20205;-64
2021/12/30 04:45:47;;;;;;;;;;;10.60;99.90;;;;;;4983309;28;19906;-64
2021/12/30 04:48:13;;;;;;;;;;;10.50;99.90;;;;;;4984973;28;19989;-63
2021/12/30 04:50:39;;;;;;;;;;;10.50;99.90;;;;;;4987150;28;19977;-64
2021/12/30 04:53:06;;;;;;;;;;;10.50;99.90;;;;;;4986968;28;19945;-64
2021/12/30 04:55:32;;;;;;;;;;;10.50;99.90;;;;;;4986865;28;19972;-64
2021/12/30 04:57:57;;;;;;;;;;;10.50;99.90;;;;;;4978479;28;19914;-63
2021/12/30 05:00:23;;;;;;;;;;;10.50;99.90;;;;;;4967519;28;20244;-63
2021/12/30 05:03:09;;;;;;;;;;;10.50;99.90;;;;;;4967566;28;19906;-64
2021/12/30 05:05:42;;;;;;;;;;;10.60;99.90;;;;;;4967251;28;19910;-63
2021/12/30 05:08:08;;;;;;;;;;;10.50;99.90;;;;;;4967390;28;19906;-64
2021/12/30 05:10:34;;;;;;;;;;;10.50;99.90;;;;;;4970890;28;19912;-64
2021/12/30 05:13:00;;;;;;;;;;;10.50;99.90;;;;;;4986626;28;19922;-64
2021/12/30 05:15:26;;;;;;;;;;;10.50;99.90;;;;;;4986346;28;20260;-64
2021/12/30 05:17:52;;;;;;;;;;;10.60;99.90;;;;;;4986432;28;19913;-63
2021/12/30 05:20:18;;;;;;;;;;;10.70;99.90;;;;;;4986237;28;19938;-63
2021/12/30 05:22:44;;;;;;;;;;;10.70;99.90;;;;;;4986565;28;19929;-63
2021/12/30 05:25:10;;;;;;;;;;;10.80;99.90;;;;;;4986180;28;19910;-64
2021/12/30 05:27:36;;;;;;;;;;;10.80;99.90;;;;;;4986288;28;19906;-64
2021/12/30 05:30:06;;;;;;;;;;;10.70;99.90;;;;;;4986088;28;19906;-64
2021/12/30 05:32:32;;;;;;;;;;;10.70;99.90;;;;;;4985479;28;19920;-63
2021/12/30 05:34:57;;;;;;;;;;;10.70;99.90;;;;;;4986194;28;19910;-64
2021/12/30 05:37:23;;;;;;;;;;;10.70;99.90;;;;;;4986269;28;19906;-64
2021/12/30 05:39:49;;;;;;;;;;;10.70;99.90;;;;;;4986099;28;20156;-63
2021/12/30 05:42:14;;;;;;;;;;;10.60;99.90;;;;;;4985118;28;19906;-64
2021/12/30 05:44:40;;;;;;;;;;;10.60;99.90;;;;;;4985748;28;19917;-64
2021/12/30 05:47:06;;;;;;;;;;;10.60;99.90;;;;;;4985774;28;19941;-64
2021/12/30 05:49:32;;;;;;;;;;;10.50;99.90;;;;;;4985676;28;19913;-63
2021/12/30 05:51:58;;;;;;;;;;;10.50;99.90;;;;;;4986072;28;19913;-64
2021/12/30 05:54:24;;;;;;;;;;;10.50;99.90;;;;;;4985783;28;19906;-64
2021/12/30 05:56:49;;;;;;;;;;;10.50;99.90;;;;;;4985887;28;20104;-63
2021/12/30 05:59:16;;;;;;;;;;;10.50;99.90;;;;;;4984469;28;20117;-64
2021/12/30 06:01:42;;;;;;;;;;;10.50;99.90;;;;;;4985735;28;19980;-64
2021/12/30 06:04:07;;;;;;;;;;;10.60;99.90;;;;;;4985383;28;20120;-62
2021/12/30 06:06:33;;;;;;;;;;;10.60;99.90;;;;;;4985658;28;19910;-63
2021/12/30 06:08:59;;;;;;;;;;;10.60;99.90;;;;;;4985488;28;19969;-63
2021/12/30 06:11:24;;;;;;;;;;;10.70;99.90;;;;;;4985667;28;19913;-64
2021/12/30 06:13:50;;;;;;;;;;;10.70;99.90;;;;;;4985646;28;19938;-63
2021/12/30 06:16:16;;;;;;;;;;;10.80;99.90;;;;;;4985312;28;20108;-64
2021/12/30 06:18:41;;;;;;;;;;;10.80;99.90;;;;;;4985039;28;19956;-64
2021/12/30 06:21:07;;;;;;;;;;;10.80;99.90;;;;;;5030542;23;19924;-66
2021/12/30 06:23:33;;;;;;;;;;;10.80;99.90;;;;;;5024345;28;19916;-66
2021/12/30 06:25:58;;;;;;;;;;;10.70;99.90;;;;;;5024132;28;20361;-66
2021/12/30 06:28:24;;;;;;;;;;;10.80;99.90;;;;;;5024465;28;20016;-65
2021/12/30 06:30:49;;;;;;;;;;;10.80;99.90;;;;;;5012846;28;20009;-65
2021/12/30 06:33:15;;;;;;;;;;;10.80;99.90;;;;;;5003912;28;19920;-65
2021/12/30 06:35:41;;;;;;;;;;;10.80;99.90;;;;;;5004427;28;20276;-66
2021/12/30 06:38:06;;;;;;;;;;;10.90;99.90;;;;;;5004764;28;19929;-65
2021/12/30 06:40:32;;;;;;;;;;;10.70;99.90;;;;;;5004242;28;19913;-65
2021/12/30 06:42:58;;;;;;;;;;;10.70;99.90;;;;;;5004464;28;19906;-65
2021/12/30 06:45:24;;;;;;;;;;;10.70;99.90;;;;;;5004071;28;19917;-65
2021/12/30 06:47:49;;;;;;;;;;;10.70;99.90;;;;;;5004437;28;19977;-65
2021/12/30 06:50:15;;;;;;;;;;;10.80;99.90;;;;;;5003973;28;19906;-65
2021/12/30 06:52:42;;;;;;;;;;;10.80;99.90;;;;;;5003111;28;19905;-65
2021/12/30 06:55:09;;;;;;;;;;;10.90;99.90;;;;;;5003956;28;19987;-65
2021/12/30 06:57:34;;;;;;;;;;;10.90;99.90;;;;;;5003244;28;19945;-65
2021/12/30 07:00:00;;;;;;;;;;;10.90;99.80;;;;;;5003169;28;19936;-65
2021/12/30 07:02:26;;;;;;;;;;;10.90;99.90;;;;;;5003123;28;19929;-65
2021/12/30 07:04:52;;;;;;;;;;;10.90;99.90;;;;;;5003818;28;20218;-65
2021/12/30 07:07:17;;;;;;;;;;;11.00;99.90;;;;;;5004181;28;19929;-65
2021/12/30 07:09:43;;;;;;;;;;;10.90;99.90;;;;;;5003768;28;19906;-65
2021/12/30 07:12:09;;;;;;;;;;;10.80;99.90;;;;;;5003113;28;19906;-61
2021/12/30 07:14:34;;;;;;;;;;;10.80;99.90;;;;;;5003838;28;20101;-61
2021/12/30 07:17:00;;;;;;;;;;;10.90;99.90;;;;;;5003727;28;19906;-60
2021/12/30 07:19:26;;;;;;;;;;;10.70;99.90;;;;;;5003811;28;19905;-60
2021/12/30 07:21:52;;;;;;;;;;;10.70;99.90;;;;;;5003510;28;19917;-65
2021/12/30 07:24:20;;;;;;;;;;;10.70;99.90;;;;;;5003253;28;20113;-65
2021/12/30 07:26:47;;;;;;;;;;;10.70;99.90;;;;;;5002636;28;19905;-66
2021/12/30 07:29:12;;;;;;;;;;;10.60;99.90;;;;;;4985648;28;19951;-65
2021/12/30 07:31:38;;;;;;;;;;;10.60;99.90;;;;;;4983811;28;19906;-65
2021/12/30 07:34:04;;;;;;;;;;;10.60;99.90;;;;;;4990629;28;19906;-65
2021/12/30 07:36:29;;;;;;;;;;;10.60;99.90;;;;;;5003314;28;20140;-65
2021/12/30 07:38:55;;;;;;;;;;;10.60;99.90;;;;;;5003440;28;19932;-64
2021/12/30 07:41:21;;;;;;;;;;;10.50;99.90;;;;;;5003180;28;19905;-64
2021/12/30 07:43:46;;;;;;;;;;;10.50;99.90;;;;;;5003518;28;19910;-64
2021/12/30 07:46:12;;;;;;;;;;;10.50;99.90;;;;;;5003243;28;19906;-63
2021/12/30 07:48:38;;;;;;;;;;;10.60;99.90;;;;;;5002633;28;19906;-64
2021/12/30 07:51:04;;;;;;;;;;;10.60;99.90;;;;;;5003292;28;19913;-64
2021/12/30 07:53:29;;;;;;;;;;;10.60;99.90;;;;;;5003344;28;19905;-64
2021/12/30 07:55:55;;;;;;;;;;;10.60;99.90;;;;;;5003142;28;20193;-64
2021/12/30 07:58:21;;;;;;;;;;;10.60;99.90;;;;;;5003388;28;19944;-64
2021/12/30 08:00:46;;;;;;;;;;;10.60;99.90;;;;;;5003118;28;19918;-64
2021/12/30 08:03:12;;;;;;;;;;;10.70;99.90;;;;;;5002603;28;19905;-64
2021/12/30 08:05:38;;;;;;;;;;;10.70;99.90;;;;;;5003004;28;20216;-64
2021/12/30 08:08:03;;;;;;;;;;;10.70;99.90;;;;;;5003195;28;19905;-64
2021/12/30 08:10:29;;;;;;;;;;;10.70;99.90;;;;;;5003262;28;20204;-64
2021/12/30 08:12:55;;;;;;;;;;;10.80;99.90;;;;;;5003163;28;20220;-64
2021/12/30 08:15:21;;;;;;;;;;;10.80;99.90;;;;;;5002969;28;19977;-64
2021/12/30 08:17:47;;;;;;;;;;;10.80;99.90;;;;;;5002978;28;20132;-64
2021/12/30 08:20:13;;;;;;;;;;;10.70;99.90;;;;;;5003040;28;19910;-63
2021/12/30 08:22:39;;;;;;;;;;;10.70;99.90;;;;;;5003718;28;19906;-64
2021/12/30 08:25:06;;;;;;;;;;;10.70;99.90;;;;;;5006677;28;19948;-64
2021/12/30 08:27:32;;;;;;;;;;;10.80;99.90;;;;;;5006961;28;20145;-64
2021/12/30 08:29:57;;;;;;;;;;;10.80;99.90;;;;;;5007001;28;19913;-64
2021/12/30 08:32:23;;;;;;;;;;;10.80;99.90;;;;;;5006473;28;19906;-63
2021/12/30 08:34:49;;;;;;;;;;;10.80;99.90;;;;;;5005741;28;19906;-64
2021/12/30 08:37:16;;;;;;;;;;;10.80;99.90;;;;;;5006739;28;19905;-64
2021/12/30 08:39:42;;;;;;;;;;;10.80;99.90;;;;;;5006696;28;19905;-63
2021/12/30 08:42:21;;;;;;;;;;;10.90;99.90;;;;;;5006611;28;19929;-63
2021/12/30 08:44:47;;;;;;;;;;;10.90;99.90;;;;;;5004455;28;19913;-63
2021/12/30 08:47:14;;;;;;;;;;;11.00;99.90;;;;;;4998678;28;19909;-63
2021/12/30 08:49:41;;;;;;;;;;;10.90;99.90;;;;;;4998829;28;19948;-62
2021/12/30 08:52:08;;;;;;;;;;;10.90;99.90;;;;;;5006324;28;19910;-63
2021/12/30 08:54:35;;;;;;;;;;;11.00;99.90;;;;;;5006292;28;19929;-63
2021/12/30 08:57:02;;;;;;;;;;;11.00;99.90;;;;;;5006254;28;19982;-62
2021/12/30 08:59:27;;;;;;;;;;;11.10;99.90;;;;;;4986868;28;20129;-63
2021/12/30 09:01:53;;;;;;;;;;;11.10;99.90;;;;;;4986358;28;19974;-63
2021/12/30 09:04:18;;;;;;;;;;;11.10;99.90;;;;;;5001183;28;20187;-63
2021/12/30 09:06:44;;;;;;;;;;;11.10;99.90;;;;;;5006222;28;19906;-63
2021/12/30 09:09:10;;;;;;;;;;;11.10;99.90;;;;;;5006194;28;19906;-64
2021/12/30 09:11:35;;;;;;;;;;;11.20;99.90;;;;;;5005939;28;20239;-64
2021/12/30 09:14:01;;;;;;;;;;;11.20;99.90;;;;;;5006142;28;19976;-64
2021/12/30 09:16:27;;;;;;;;;;;11.20;99.90;;;;;;5005875;28;19928;-64
2021/12/30 09:18:52;;;;;;;;;;;11.30;99.90;;;;;;5005678;28;20101;-64
2021/12/30 09:21:18;;;;;;;;;;;11.30;99.90;;;;;;5005919;28;19916;-64
2021/12/30 09:23:44;;;;;;;;;;;11.30;99.90;;;;;;5005743;28;19909;-64
2021/12/30 09:26:09;;;;;;;;;;;11.30;99.90;;;;;;5000040;28;19917;-69
2021/12/30 09:28:35;;;;;;;;;;;11.40;99.90;;;;;;5001473;28;20193;-68
2021/12/30 09:31:01;;;;;;;;;;;11.40;99.90;;;;;;5005825;28;19969;-75
2021/12/30 09:33:27;;;;;;;;;;;11.40;99.90;;;;;;5004157;28;20128;-73
2021/12/30 09:35:52;;;;;;;;;;;11.50;99.90;;;;;;5004296;28;20204;-74
2021/12/30 09:38:19;;;;;;;;;;;11.50;99.90;;;;;;5004211;28;19910;-71
2021/12/30 09:40:45;;;;;;;;;;;11.50;99.90;;;;;;5004489;28;19933;-73
2021/12/30 09:43:11;;;;;;;;;;;11.50;99.90;;;;;;5003708;28;19905;-74
2021/12/30 09:45:39;;;;;;;;;;;11.50;99.90;;;;;;5003881;28;19921;-73
2021/12/30 09:48:07;;;;;;;;;;;11.60;99.90;;;;;;5004097;28;19906;-69
2021/12/30 09:50:39;;;;;;;;;;;11.70;99.90;;;;;;5005261;28;19972;-73
2021/12/30 09:53:05;;;;;;;;;;;11.80;99.90;;;;;;5005269;28;20193;-73
2021/12/30 09:55:30;;;;;;;;;;;11.90;99.90;;;;;;5004329;28;19916;-73
2021/12/30 09:57:56;;;;;;;;;;;12.00;99.90;;;;;;4985732;28;20078;-75
2021/12/30 10:00:22;;;;;;;;;;;12.20;99.90;;;;;;5000192;28;19910;-70
2021/12/30 10:02:48;;;;;;;;;;;12.30;99.90;;;;;;4985553;28;19936;-71
2021/12/30 10:05:16;;;;;;;;;;;12.40;99.90;;;;;;5003328;28;19910;-71
2021/12/30 10:07:41;;;;;;;;;;;12.50;99.90;;;;;;5005011;28;20201;-69
2021/12/30 10:10:29;;;;;;;;;;;12.60;99.90;;;;;;5005049;28;19973;-69
2021/12/30 10:12:56;;;;;;;;;;;12.60;99.90;;;;;;5004465;28;20239;-69
2021/12/30 10:15:24;;;;;;;;;;;12.80;99.90;;;;;;5003774;28;19913;-70
2021/12/30 10:17:58;;;;;;;;;;;12.90;99.90;;;;;;5003446;28;19906;-71
2021/12/30 10:20:27;;;;;;;;;;;12.90;99.90;;;;;;5004796;28;20334;-70
2021/12/30 10:22:54;;;;;;;;;;;13.10;99.90;;;;;;5003639;28;19905;-71
2021/12/30 10:25:37;;;;;;;;;;;13.10;99.90;;;;;;5002929;28;20208;-72
2021/12/30 10:28:27;;;;;;;;;;;13.10;99.90;;;;;;4993053;28;19910;-73
2021/12/30 10:31:21;;;;;;;;;;;13.20;99.90;;;;;;4985087;28;19992;-71
2021/12/30 10:34:04;;;;;;;;;;;13.20;99.90;;;;;;4981383;28;20150;-72
2021/12/30 10:36:43;;;;;;;;;;;13.20;99.90;;;;;;4969352;28;19964;-72
2021/12/30 10:39:23;;;;;;;;;;;13.20;99.90;;;;;;4984038;28;19906;-72
2021/12/30 10:41:51;;;;;;;;;;;13.30;99.90;;;;;;4984988;28;20193;-72
2021/12/30 10:44:16;;;;;;;;;;;13.30;99.90;;;;;;4996656;28;19967;-72
2021/12/30 10:46:42;;;;;;;;;;;13.30;99.90;;;;;;5002510;28;19913;-72
2021/12/30 10:49:09;;;;;;;;;;;13.30;99.90;;;;;;5002958;28;20145;-72
2021/12/30 10:51:35;;;;;;;;;;;13.30;99.90;;;;;;5003865;28;19944;-71
2021/12/30 10:54:28;;;;;;;;;;;13.30;99.90;;;;;;5003186;28;19906;-72
2021/12/30 10:57:01;;;;;;;;;;;13.30;99.90;;;;;;4997308;28;19936;-72
2021/12/30 10:59:30;;;;;;;;;;;13.40;99.90;;;;;;5002894;28;19906;-71
2021/12/30 11:01:56;;;;;;;;;;;13.40;99.90;;;;;;5002277;28;19913;-72
2021/12/30 11:04:34;;;;;;;;;;;13.40;99.90;;;;;;5002472;28;20108;-72
2021/12/30 11:07:00;;;;;;;;;;;13.40;99.90;;;;;;5002860;28;19906;-71
2021/12/30 11:09:25;;;;;;;;;;;13.40;99.90;;;;;;5002690;28;19973;-68
2021/12/30 11:11:52;;;;;;;;;;;13.50;99.90;;;;;;5003935;28;20144;-70
2021/12/30 11:14:25;;;;;;;;;;;13.50;99.90;;;;;;4993999;28;19932;-70
2021/12/30 11:16:52;;;;;;;;;;;13.50;99.90;;;;;;4987125;28;19905;-70
2021/12/30 11:19:18;;;;;;;;;;;13.60;99.90;;;;;;4985745;28;19909;-71
2021/12/30 11:21:44;;;;;;;;;;;13.60;99.90;;;;;;4996851;28;19956;-71
2021/12/30 11:24:10;;;;;;;;;;;13.50;99.90;;;;;;4996255;28;20224;-73
2021/12/30 11:26:36;;;;;;;;;;;13.60;99.90;;;;;;5020362;28;20112;-70
2021/12/30 11:29:02;;;;;;;;;;;13.70;99.90;;;;;;5003269;28;19910;-70
2021/12/30 11:31:29;;;;;;;;;;;13.70;99.70;;;;;;5035075;28;19913;-69
2021/12/30 11:33:55;;;;;;;;;;;13.90;99.20;;;;;;5003183;28;19906;-73
2021/12/30 11:36:20;;;;;;;;;;;13.90;99.10;;;;;;5033476;28;19905;-74
2021/12/30 11:38:46;;;;;;;;;;;14.00;98.90;;;;;;5002304;28;19912;-70
2021/12/30 11:41:17;;;;;;;;;;;14.10;98.50;;;;;;5000596;28;19913;-71
2021/12/30 11:43:43;;;;;;;;;;;14.20;98.40;;;;;;5019165;28;19914;-70
2021/12/30 11:46:37;;;;;;;;;;;14.20;98.20;;;;;;4994204;28;19976;-70
2021/12/30 11:49:04;;;;;;;;;;;14.20;98.20;;;;;;4986239;28;19913;-73
2021/12/30 11:51:47;;;;;;;;;;;14.20;98.30;;;;;;4982618;28;19933;-73
2021/12/30 11:54:39;;;;;;;;;;;14.30;98.30;;;;;;4982769;28;20112;-75
2021/12/30 11:57:34;;;;;;;;;;;14.20;98.10;;;;;;5001981;28;19932;-75
2021/12/30 12:00:21;;;;;;;;;;;14.10;98.30;;;;;;5001963;28;19906;-75
2021/12/30 12:02:46;;;;;;;;;;;14.00;98.50;;;;;;5006042;28;19924;-72
2021/12/30 12:05:43;;;;;;;;;;;14.00;98.50;;;;;;4996312;28;19910;-68
2021/12/30 12:08:11;;;;;;;;;;;14.00;98.50;;;;;;5008218;28;19910;-68
2021/12/30 12:10:37;;;;;;;;;;;14.10;98.60;;;;;;5009664;28;19913;-68
2021/12/30 12:13:31;;;;;;;;;;;14.00;98.70;;;;;;5008984;28;19977;-69
2021/12/30 12:15:57;;;;;;;;;;;14.00;98.70;;;;;;4995672;28;19944;-68
2021/12/30 12:18:25;;;;;;;;;;;14.00;98.70;;;;;;5009142;28;19956;-67
2021/12/30 12:20:52;;;;;;;;;;;14.00;98.60;;;;;;5009420;28;19917;-67
2021/12/30 12:23:34;;;;;;;;;;;14.00;98.70;;;;;;4989690;28;19906;-71
2021/12/30 12:26:07;;;;;;;;;;;14.00;98.70;;;;;;4989240;28;20209;-71
2021/12/30 12:28:33;;;;;;;;;;;14.00;98.70;;;;;;5001829;28;19906;-68
2021/12/30 12:30:58;;;;;;;;;;;14.10;98.40;;;;;;5009246;28;19940;-71
2021/12/30 12:33:25;;;;;;;;;;;14.00;98.60;;;;;;5008407;28;19905;-71
2021/12/30 12:35:51;;;;;;;;;;;14.10;98.70;;;;;;5009104;28;19933;-71
2021/12/30 12:38:40;;;;;;;;;;;14.10;98.50;;;;;;5008382;28;19952;-75
2021/12/30 12:41:36;;;;;;;;;;;14.10;98.50;;;;;;5008272;28;19985;-73
2021/12/30 12:44:04;;;;;;;;;;;14.10;98.50;;;;;;5003161;28;19919;-70
2021/12/30 12:46:47;;;;;;;;;;;14.40;97.80;;;;;;4999099;28;19972;-69
2021/12/30 12:49:13;;;;;;;;;;;14.70;97.30;;;;;;4989566;28;20201;-69
2021/12/30 12:51:54;;;;;;;;;;;15.00;96.70;;;;;;4988790;28;19948;-68
2021/12/30 12:54:47;;;;;;;;;;;15.10;96.20;;;;;;4989232;28;19905;-68
2021/12/30 12:57:17;;;;;;;;;;;15.20;96.20;;;;;;4986932;28;19906;-67
2021/12/30 12:59:43;;;;;;;;;;;15.20;95.80;;;;;;4989397;28;19906;-67
2021/12/30 13:02:14;;;;;;;;;;;15.20;95.60;;;;;;5004867;28;19906;-67
2021/12/30 13:04:40;;;;;;;;;;;15.10;95.70;;;;;;4989279;28;19923;-68
2021/12/30 13:07:17;;;;;;;;;;;15.10;95.90;;;;;;4993437;28;20198;-68
2021/12/30 13:09:48;;;;;;;;;;;14.90;96.10;;;;;;5007113;28;19913;-67
2021/12/30 13:12:14;;;;;;;;;;;14.80;96.20;;;;;;5012397;23;19905;-69
2021/12/30 13:14:40;;;;;;;;;;;14.80;96.30;;;;;;4998663;28;19956;-67
2021/12/30 13:17:11;;;;;;;;;;;14.70;96.50;;;;;;5003304;28;19910;-67
2021/12/30 13:19:41;;;;;;;;;;;14.60;96.80;;;;;;5006054;28;19985;-70
2021/12/30 13:22:17;;;;;;;;;;;14.50;96.90;;;;;;5000025;28;19906;-66
2021/12/30 13:24:47;;;;;;;;;;;14.50;97.00;;;;;;4966725;28;19973;-69
2021/12/30 13:27:13;;;;;;;;;;;14.40;97.00;;;;;;4967260;28;20302;-70
2021/12/30 13:29:41;;;;;;;;;;;14.40;97.10;;;;;;4966638;28;19914;-70
2021/12/30 13:32:12;;;;;;;;;;;14.30;97.30;;;;;;4983208;28;19905;-68
2021/12/30 13:35:09;;;;;;;;;;;14.30;97.50;;;;;;4985589;28;19913;-67
2021/12/30 13:37:40;;;;;;;;;;;14.30;97.50;;;;;;4983051;28;19906;-67
2021/12/30 13:40:21;;;;;;;;;;;14.30;97.40;;;;;;4966582;28;20205;-67
2021/12/30 13:42:54;;;;;;;;;;;14.20;97.70;;;;;;4976062;28;19906;-67
2021/12/30 13:45:30;;;;;;;;;;;14.10;97.80;;;;;;4975315;28;20295;-67
2021/12/30 13:48:21;;;;;;;;;;;14.10;97.90;;;;;;4985929;28;19957;-67
2021/12/30 13:50:52;;;;;;;;;;;14.10;98.00;;;;;;4985880;28;20164;-74
2021/12/30 13:53:18;;;;;;;;;;;14.10;98.10;;;;;;4977331;28;20193;-76
2021/12/30 13:55:51;;;;;;;;;;;14.10;97.90;;;;;;4984124;28;19921;-74
2021/12/30 13:58:21;;;;;;;;;;;14.10;98.00;;;;;;4984815;28;19906;-75
2021/12/30 14:00:50;;;;;;;;;;;14.00;98.30;;;;;;4968338;28;19906;-73
2021/12/30 14:03:21;;;;;;;;;;;14.00;98.30;;;;;;4985585;28;19906;-75
2021/12/30 14:05:48;;;;;;;;;;;14.00;98.40;;;;;;4968053;28;20205;-70
2021/12/30 14:08:15;;;;;;;;;;;14.10;98.30;;;;;;4977708;28;20197;-76
2021/12/30 14:10:52;;;;;;;;;;;14.10;98.10;;;;;;4965087;28;19940;-69
2021/12/30 14:13:19;;;;;;;;;;;14.10;98.00;;;;;;4966264;28;20193;-72
2021/12/30 14:15:44;;;;;;;;;;;14.20;97.90;;;;;;4950242;28;19949;-67
2021/12/30 14:18:11;;;;;;;;;;;14.20;97.90;;;;;;4984948;28;19906;-68
2021/12/30 14:20:38;;;;;;;;;;;14.20;97.80;;;;;;4982883;28;19936;-68
2021/12/30 14:23:03;;;;;;;;;;;14.20;97.80;;;;;;4985126;28;19906;-66